Cherry Hills Village, Colorado
Current Conditions -  °F | °C
As of 12:53 PM on Sunday 23 Nov 2014 (Local Time) from KAPA Reporting Station
Broken Clouds Broken Clouds  
Wind Chill: 32°   Ceiling: 7000
Heat Index: 40°   Visibility: 10mi
Dew Point: 13°   Wind: 14mph
Humidity: 33%   Direction: 350°N
Pressure: 29.75"   Gusts: NA
Location:  39.6158°N, 104.874°W
Report Text: KAPA 231953Z 35012KT 10SM BKN070 BKN100 BKN200 04/M11 A2975 RMK AO2 SLP072 SHSN OMTNS DSNT W-NW T00441106
Loading
Personal Weather Stations






























Interactive Weather Map New forecast layout! Learn more

10-Day Weather Forecast

Advertisements
Track Severe Weather on mobile